createdAt,value
2018-06-28T00:00:16.112Z,13.87
2018-06-28T00:02:43.373Z,13.90
2018-06-28T00:05:10.685Z,13.94
2018-06-28T00:07:37.918Z,13.86
2018-06-28T00:10:05.187Z,13.83
2018-06-28T00:12:32.449Z,13.78
2018-06-28T00:14:59.910Z,13.62
2018-06-28T00:20:17.282Z,13.50
2018-06-28T00:22:44.554Z,13.46
2018-06-28T00:25:11.822Z,13.44
2018-06-28T00:27:39.082Z,13.37
2018-06-28T00:30:06.464Z,13.35
2018-06-28T00:32:33.750Z,13.34
2018-06-28T00:35:01.072Z,13.36
2018-06-28T00:37:28.339Z,13.33
2018-06-28T00:40:15.057Z,13.37
2018-06-28T00:42:42.375Z,13.32
2018-06-28T00:45:09.755Z,13.27
2018-06-28T00:47:37.058Z,13.13
2018-06-28T00:50:04.327Z,13.03
2018-06-28T00:52:31.610Z,12.95
2018-06-28T00:54:58.870Z,12.85
2018-06-28T00:57:26.246Z,12.85
2018-06-28T00:59:53.538Z,12.90
2018-06-28T01:02:20.867Z,12.95
2018-06-28T01:04:48.148Z,12.99
2018-06-28T01:07:15.483Z,12.98
2018-06-28T01:09:42.751Z,12.97
2018-06-28T01:12:10.011Z,12.95
2018-06-28T01:14:37.283Z,12.85
2018-06-28T01:17:04.731Z,12.75
2018-06-28T01:19:31.954Z,12.67
2018-06-28T01:21:59.244Z,12.69
2018-06-28T01:24:26.534Z,12.53
2018-06-28T01:26:53.830Z,12.44
2018-06-28T01:29:21.074Z,12.33
2018-06-28T01:31:48.379Z,12.34
2018-06-28T01:34:15.829Z,12.34
2018-06-28T01:36:43.109Z,12.35
2018-06-28T01:39:11.399Z,12.45
2018-06-28T01:41:50.890Z,12.52
2018-06-28T01:44:18.178Z,12.53
2018-06-28T01:46:45.410Z,12.45
2018-06-28T01:49:12.779Z,12.31
2018-06-28T01:51:40.017Z,12.06
2018-06-28T01:54:07.288Z,11.97
2018-06-28T01:56:34.519Z,11.97
2018-06-28T01:59:01.786Z,11.98
2018-06-28T02:01:29.049Z,11.98
2018-06-28T02:03:56.306Z,11.98
2018-06-28T02:06:23.574Z,12.02
2018-06-28T02:08:51.012Z,12.05
2018-06-28T02:11:18.278Z,12.05
2018-06-28T02:13:45.599Z,12.11
2018-06-28T02:16:12.846Z,12.17
2018-06-28T02:18:40.088Z,12.21
2018-06-28T02:21:07.371Z,12.24
2018-06-28T02:23:34.614Z,12.25
2018-06-28T02:26:01.903Z,12.23
2018-06-28T02:28:29.125Z,12.18
2018-06-28T02:30:56.407Z,12.02
2018-06-28T02:33:23.722Z,11.91
2018-06-28T02:35:51.087Z,11.86
2018-06-28T02:38:18.365Z,11.82
2018-06-28T02:40:45.687Z,11.89
2018-06-28T02:43:12.966Z,11.88
2018-06-28T02:45:40.311Z,11.89
2018-06-28T02:48:07.725Z,11.88
2018-06-28T02:50:35.164Z,11.91
2018-06-28T02:53:02.506Z,11.93
2018-06-28T02:55:30.021Z,11.92
2018-06-28T02:57:57.474Z,11.91
2018-06-28T03:00:25.398Z,11.91
2018-06-28T03:02:52.804Z,11.89
2018-06-28T03:05:20.157Z,11.86
2018-06-28T03:07:47.537Z,11.85
2018-06-28T03:10:14.957Z,11.84
2018-06-28T03:12:43.016Z,11.74
2018-06-28T03:15:11.111Z,11.73
2018-06-28T03:17:38.455Z,11.79
2018-06-28T03:20:06.304Z,11.79
2018-06-28T03:22:34.928Z,11.78
2018-06-28T03:25:03.980Z,11.70
2018-06-28T03:27:31.994Z,11.69
2018-06-28T03:29:59.398Z,11.68
2018-06-28T03:32:26.815Z,11.73
2018-06-28T03:34:54.169Z,11.81
2018-06-28T03:37:21.556Z,11.89
2018-06-28T03:39:48.931Z,11.93
2018-06-28T03:42:17.053Z,11.98
2018-06-28T03:44:44.422Z,12.10
2018-06-28T03:47:11.774Z,12.11
2018-06-28T03:49:40.119Z,12.16
2018-06-28T03:52:07.517Z,12.20
2018-06-28T03:54:35.049Z,12.21
2018-06-28T03:57:02.737Z,12.21
2018-06-28T03:59:31.076Z,12.23
2018-06-28T04:01:59.071Z,12.27
2018-06-28T04:04:26.558Z,12.29
2018-06-28T04:06:53.965Z,12.39
2018-06-28T04:09:21.932Z,12.46
2018-06-28T04:11:49.374Z,12.58
2018-06-28T04:14:16.928Z,12.70
2018-06-28T04:16:44.352Z,12.79
2018-06-28T04:19:11.790Z,12.87
2018-06-28T04:21:39.260Z,12.98
2018-06-28T04:24:06.662Z,13.00
2018-06-28T04:26:34.073Z,13.11
2018-06-28T04:29:01.408Z,13.23
2018-06-28T04:31:28.735Z,13.33
2018-06-28T04:33:56.242Z,13.46
2018-06-28T04:36:23.786Z,13.52
2018-06-28T04:38:51.198Z,13.57
2018-06-28T04:41:18.504Z,13.64
2018-06-28T04:43:45.964Z,13.69
2018-06-28T04:46:13.330Z,13.80
2018-06-28T04:48:40.884Z,14.01
2018-06-28T04:51:08.267Z,14.17
2018-06-28T04:53:35.712Z,14.34
2018-06-28T04:56:03.629Z,14.50
2018-06-28T04:58:30.964Z,14.81
2018-06-28T05:00:59.196Z,15.14
2018-06-28T05:03:26.555Z,15.42
2018-06-28T05:05:54.108Z,15.68
2018-06-28T05:08:21.480Z,15.77
2018-06-28T05:10:48.925Z,15.89
2018-06-28T05:13:16.268Z,15.94
2018-06-28T05:15:43.663Z,15.89
2018-06-28T05:18:11.075Z,15.82
2018-06-28T05:20:39.403Z,15.77
2018-06-28T05:23:06.800Z,15.76
2018-06-28T05:25:34.188Z,15.83
2018-06-28T05:28:01.574Z,16.06
2018-06-28T05:30:29.470Z,16.41
2018-06-28T05:32:57.053Z,16.78
2018-06-28T05:35:24.501Z,17.24
2018-06-28T05:37:52.652Z,17.61
2018-06-28T05:40:20.082Z,17.85
2018-06-28T05:42:47.455Z,17.91
2018-06-28T05:45:15.703Z,18.25
2018-06-28T05:47:45.860Z,18.54
2018-06-28T05:50:15.738Z,18.97
2018-06-28T05:52:45.545Z,19.34
2018-06-28T05:55:13.567Z,19.51
2018-06-28T05:57:40.881Z,19.65
2018-06-28T06:00:08.347Z,20.00
2018-06-28T06:02:35.802Z,20.09
2018-06-28T06:05:03.387Z,20.05
2018-06-28T06:07:30.772Z,20.39
2018-06-28T06:09:58.202Z,20.21
2018-06-28T06:12:25.786Z,20.36
2018-06-28T06:17:45.800Z,20.61
2018-06-28T06:20:13.267Z,20.59
2018-06-28T06:22:41.553Z,20.95
2018-06-28T06:25:08.988Z,21.13
2018-06-28T06:27:36.904Z,21.44
2018-06-28T06:30:05.975Z,21.33
2018-06-28T06:32:33.441Z,21.45
2018-06-28T06:35:01.447Z,21.32
2018-06-28T06:37:28.960Z,21.62
2018-06-28T06:39:56.348Z,21.93
2018-06-28T06:42:23.708Z,21.83
2018-06-28T06:44:52.151Z,22.09
2018-06-28T06:47:19.725Z,22.09
2018-06-28T06:49:47.223Z,22.34
2018-06-28T06:52:14.598Z,22.36
2018-06-28T06:54:42.031Z,22.51
2018-06-28T06:57:09.535Z,23.23
2018-06-28T06:59:37.013Z,23.63
2018-06-28T07:02:04.605Z,23.74
2018-06-28T07:04:32.004Z,23.54
2018-06-28T07:06:59.577Z,23.67
2018-06-28T07:09:27.775Z,23.83
2018-06-28T07:11:55.669Z,23.79
2018-06-28T07:14:23.232Z,24.32
2018-06-28T07:16:50.637Z,24.59
2018-06-28T07:19:18.106Z,24.43
2018-06-28T07:21:45.826Z,24.71
2018-06-28T07:24:13.254Z,23.95
2018-06-28T07:26:40.631Z,23.60
2018-06-28T07:29:08.026Z,24.63
2018-06-28T07:31:35.441Z,24.39
2018-06-28T07:34:02.941Z,24.29
2018-06-28T07:36:30.347Z,24.50
2018-06-28T07:38:57.993Z,24.32
2018-06-28T07:41:25.643Z,24.84
2018-06-28T07:43:53.223Z,25.49
2018-06-28T07:46:20.624Z,25.74
2018-06-28T07:48:48.015Z,25.54
2018-06-28T07:51:15.592Z,24.77
2018-06-28T07:53:42.974Z,24.80
2018-06-28T07:56:11.046Z,24.61
2018-06-28T07:58:38.451Z,25.03
2018-06-28T08:01:05.881Z,25.16
2018-06-28T08:03:33.250Z,24.97
2018-06-28T08:06:01.348Z,25.38
2018-06-28T08:08:28.673Z,25.47
2018-06-28T08:10:56.161Z,25.01
2018-06-28T08:13:23.841Z,25.40
2018-06-28T08:15:51.272Z,25.91
2018-06-28T08:18:18.682Z,26.04
2018-06-28T08:20:46.098Z,25.25
2018-06-28T08:23:13.491Z,25.51
2018-06-28T08:25:40.874Z,24.95
2018-06-28T08:28:08.539Z,24.91
2018-06-28T08:30:35.886Z,25.50
2018-06-28T08:33:04.801Z,26.53
2018-06-28T08:35:32.812Z,25.47
2018-06-28T08:38:00.219Z,25.52
2018-06-28T08:40:27.650Z,25.35
2018-06-28T08:42:55.097Z,24.96
2018-06-28T08:45:22.495Z,25.36
2018-06-28T08:47:49.855Z,24.98
2018-06-28T08:50:17.242Z,24.97
2018-06-28T08:52:45.291Z,25.68
2018-06-28T08:55:12.643Z,25.67
2018-06-28T08:57:40.208Z,25.62
2018-06-28T09:00:08.061Z,25.57
2018-06-28T09:02:35.350Z,26.01
2018-06-28T09:05:02.696Z,26.48
2018-06-28T09:07:30.127Z,27.07
2018-06-28T09:09:57.486Z,26.37
2018-06-28T09:12:25.766Z,25.87
2018-06-28T09:14:53.141Z,25.04
2018-06-28T09:17:20.650Z,25.67
2018-06-28T09:19:48.024Z,26.23
2018-06-28T09:22:15.407Z,27.03
2018-06-28T09:24:42.781Z,27.26
2018-06-28T09:27:11.140Z,26.53
2018-06-28T09:29:38.600Z,26.76
2018-06-28T09:32:06.542Z,26.99
2018-06-28T09:34:34.226Z,26.71
2018-06-28T09:37:01.893Z,27.12
2018-06-28T09:39:30.153Z,26.68
2018-06-28T09:41:57.911Z,27.28
2018-06-28T09:44:25.637Z,27.25
2018-06-28T09:46:53.340Z,26.79
2018-06-28T09:49:20.932Z,27.03
2018-06-28T09:51:48.559Z,26.39
2018-06-28T09:54:16.905Z,26.36
2018-06-28T09:56:44.398Z,26.35
2018-06-28T09:59:11.955Z,26.69
2018-06-28T10:01:40.795Z,27.10
2018-06-28T10:04:08.494Z,26.46
2018-06-28T10:06:36.008Z,26.19
2018-06-28T10:09:05.932Z,25.88
2018-06-28T10:11:33.946Z,25.29
2018-06-28T10:14:01.575Z,25.92
2018-06-28T10:16:29.024Z,27.08
2018-06-28T10:18:56.440Z,28.14
2018-06-28T10:21:24.363Z,28.05
2018-06-28T10:23:51.851Z,28.08
2018-06-28T10:26:19.394Z,27.94
2018-06-28T10:28:47.022Z,27.31
2018-06-28T10:31:16.547Z,27.04
2018-06-28T10:33:44.032Z,26.92
2018-06-28T10:36:11.725Z,26.35
2018-06-28T10:38:40.283Z,26.05
2018-06-28T10:41:07.675Z,25.35
2018-06-28T10:43:35.024Z,25.56
2018-06-28T10:46:02.608Z,25.84
2018-06-28T10:48:30.955Z,26.56
2018-06-28T10:50:58.581Z,26.97
2018-06-28T10:53:26.123Z,26.32
2018-06-28T10:55:53.554Z,26.82
2018-06-28T10:58:20.985Z,27.72
2018-06-28T11:00:48.472Z,28.02
2018-06-28T11:03:16.101Z,27.45
2018-06-28T11:05:44.380Z,27.88
2018-06-28T11:08:11.923Z,28.25
2018-06-28T11:10:39.838Z,28.47
2018-06-28T11:13:07.228Z,28.36
2018-06-28T11:15:34.663Z,27.70
2018-06-28T11:18:02.381Z,27.57
2018-06-28T11:20:30.105Z,27.60
2018-06-28T11:22:57.481Z,28.38
2018-06-28T11:25:24.835Z,27.82
2018-06-28T11:27:55.381Z,27.38
2018-06-28T11:30:24.371Z,27.98
2018-06-28T11:32:54.660Z,29.03
2018-06-28T11:35:24.959Z,28.47
2018-06-28T11:37:52.350Z,27.16
2018-06-28T11:40:20.256Z,26.33
2018-06-28T11:42:47.614Z,26.35
2018-06-28T11:45:15.245Z,27.73
2018-06-28T11:47:42.570Z,28.31
2018-06-28T11:50:11.037Z,29.12
2018-06-28T11:52:38.426Z,29.05
2018-06-28T11:55:05.797Z,28.57
2018-06-28T11:57:34.109Z,27.88
2018-06-28T12:00:02.698Z,27.69
2018-06-28T12:02:30.129Z,27.98
2018-06-28T12:04:57.474Z,27.04
2018-06-28T12:07:24.909Z,26.94
2018-06-28T12:09:52.296Z,26.91
2018-06-28T12:12:19.760Z,26.76
2018-06-28T12:14:47.184Z,26.68
2018-06-28T12:17:14.523Z,26.62
2018-06-28T12:19:41.902Z,26.38
2018-06-28T12:22:09.503Z,26.09
2018-06-28T12:27:03.763Z,25.39
2018-06-28T12:29:31.132Z,25.39
2018-06-28T12:31:58.806Z,26.08
2018-06-28T12:34:26.202Z,27.02
2018-06-28T12:36:53.648Z,27.45
2018-06-28T12:39:21.035Z,28.26
2018-06-28T12:41:48.454Z,28.20
2018-06-28T12:44:16.019Z,27.93
2018-06-28T12:47:55.119Z,28.01
2018-06-28T12:50:24.794Z,27.99
2018-06-28T12:52:57.104Z,27.40
2018-06-28T12:55:27.331Z,27.18
2018-06-28T12:57:56.987Z,26.48
2018-06-28T13:00:24.431Z,25.89
2018-06-28T13:02:51.990Z,25.94
2018-06-28T13:05:19.710Z,25.37
2018-06-28T13:07:47.190Z,25.37
2018-06-28T13:10:18.206Z,25.46
2018-06-28T13:12:45.900Z,25.47
2018-06-28T13:15:15.473Z,25.67
2018-06-28T13:17:43.044Z,25.95
2018-06-28T13:20:10.869Z,26.74
2018-06-28T13:22:38.774Z,26.65
2018-06-28T13:25:07.181Z,26.85
2018-06-28T13:27:34.682Z,27.02
2018-06-28T13:30:02.299Z,27.38
2018-06-28T13:32:29.706Z,27.14
2018-06-28T13:34:57.048Z,26.60
2018-06-28T13:37:24.458Z,26.27
2018-06-28T13:39:51.710Z,25.66
2018-06-28T13:42:19.150Z,25.52
2018-06-28T13:44:46.329Z,25.38
2018-06-28T13:47:13.696Z,25.38
2018-06-28T13:49:41.031Z,25.23
2018-06-28T13:52:09.163Z,25.19
2018-06-28T13:54:36.705Z,25.18
2018-06-28T13:57:04.168Z,24.98
2018-06-28T13:59:31.550Z,24.92
2018-06-28T14:01:58.940Z,25.04
2018-06-28T14:04:26.339Z,25.10
2018-06-28T14:06:54.001Z,25.24
2018-06-28T14:09:21.389Z,25.29
2018-06-28T14:11:48.711Z,25.10
2018-06-28T14:14:16.181Z,24.92
2018-06-28T14:16:43.543Z,24.94
2018-06-28T14:19:10.951Z,24.89
2018-06-28T14:21:38.336Z,24.82
2018-06-28T14:24:05.998Z,24.93
2018-06-28T14:26:33.411Z,24.88
2018-06-28T14:29:13.686Z,24.78
2018-06-28T14:31:41.139Z,24.69
2018-06-28T14:34:08.554Z,24.64
2018-06-28T14:36:36.160Z,24.60
2018-06-28T14:39:05.517Z,24.68
2018-06-28T14:41:33.024Z,24.65
2018-06-28T14:44:00.448Z,24.68
2018-06-28T14:46:28.051Z,24.72
2018-06-28T14:48:56.223Z,24.79
2018-06-28T14:51:23.655Z,24.71
2018-06-28T14:53:51.816Z,24.68
2018-06-28T14:56:19.201Z,24.70
2018-06-28T14:58:46.766Z,24.74
2018-06-28T15:01:14.199Z,24.68
2018-06-28T15:03:41.594Z,24.54
2018-06-28T15:06:09.013Z,24.49
2018-06-28T15:08:36.483Z,24.46
2018-06-28T15:11:04.477Z,24.37
2018-06-28T15:13:32.131Z,24.31
2018-06-28T15:15:59.564Z,24.26
2018-06-28T15:18:26.949Z,24.25
2018-06-28T15:20:54.448Z,24.18
2018-06-28T15:23:22.544Z,24.15
2018-06-28T15:25:49.975Z,24.16
2018-06-28T15:28:17.479Z,24.10
2018-06-28T15:30:45.717Z,24.11
2018-06-28T15:33:13.295Z,24.12
2018-06-28T15:35:40.931Z,24.09
2018-06-28T15:38:08.448Z,24.16
2018-06-28T15:40:35.852Z,24.21
2018-06-28T15:43:03.384Z,24.20
2018-06-28T15:45:30.813Z,24.18
2018-06-28T15:47:58.422Z,24.11
2018-06-28T15:50:25.994Z,23.97
2018-06-28T15:52:53.484Z,23.69
2018-06-28T15:55:20.862Z,23.67
2018-06-28T15:57:50.150Z,23.57
2018-06-28T16:00:18.381Z,23.52
2018-06-28T16:02:45.965Z,23.52
2018-06-28T16:05:13.797Z,23.55
2018-06-28T16:07:41.341Z,23.50
2018-06-28T16:10:09.577Z,23.45
2018-06-28T16:12:36.945Z,23.51
2018-06-28T16:15:04.565Z,23.54
2018-06-28T16:17:31.940Z,23.53
2018-06-28T16:19:59.557Z,23.65
2018-06-28T16:22:26.912Z,23.77
2018-06-28T16:24:54.307Z,23.82
2018-06-28T16:27:22.269Z,23.87
2018-06-28T16:29:49.679Z,23.88
2018-06-28T16:32:17.166Z,23.89
2018-06-28T16:34:44.532Z,23.93
2018-06-28T16:37:11.920Z,23.92
2018-06-28T16:39:39.285Z,23.83
2018-06-28T16:42:06.942Z,23.87
2018-06-28T16:44:34.513Z,23.84
2018-06-28T16:47:01.905Z,23.88
2018-06-28T16:49:29.885Z,23.65
2018-06-28T16:51:57.250Z,23.62
2018-06-28T16:54:25.100Z,23.53
2018-06-28T16:56:52.492Z,23.46
2018-06-28T16:59:19.935Z,23.53
2018-06-28T17:01:47.310Z,23.52
2018-06-28T17:04:14.883Z,23.44
2018-06-28T17:06:42.431Z,23.39
2018-06-28T17:09:10.279Z,23.42
2018-06-28T17:11:37.656Z,23.43
2018-06-28T17:14:05.569Z,23.32
2018-06-28T17:16:33.007Z,23.30
2018-06-28T17:19:00.812Z,23.32
2018-06-28T17:21:28.298Z,23.45
2018-06-28T17:23:56.127Z,23.56
2018-06-28T17:26:24.239Z,23.62
2018-06-28T17:28:52.046Z,23.64
2018-06-28T17:31:20.847Z,23.57
2018-06-28T17:33:48.727Z,23.52
2018-06-28T17:36:16.499Z,23.39
2018-06-28T17:38:44.301Z,23.33
2018-06-28T17:41:12.096Z,23.32
2018-06-28T17:43:39.959Z,23.37
2018-06-28T17:46:08.150Z,23.35
2018-06-28T17:48:35.807Z,23.23
2018-06-28T17:51:04.163Z,23.19
2018-06-28T17:53:32.608Z,23.11
2018-06-28T17:56:00.616Z,23.10
2018-06-28T17:59:17.687Z,23.01
2018-06-28T18:01:46.399Z,22.91
2018-06-28T18:04:14.370Z,22.85
2018-06-28T18:06:44.704Z,22.90
2018-06-28T18:09:12.242Z,22.84
2018-06-28T18:11:39.848Z,22.84
2018-06-28T18:14:08.134Z,22.86
2018-06-28T18:16:37.103Z,22.87
2018-06-28T18:19:04.761Z,22.90
2018-06-28T18:21:32.167Z,22.86
2018-06-28T18:24:00.486Z,22.79
2018-06-28T18:26:28.278Z,22.71
2018-06-28T18:28:57.551Z,22.62
2018-06-28T18:31:25.296Z,22.55
2018-06-28T18:33:53.535Z,22.52
2018-06-28T18:36:21.202Z,22.43
2018-06-28T18:38:50.085Z,22.43
2018-06-28T18:41:22.488Z,22.43
2018-06-28T18:43:53.763Z,22.40
2018-06-28T18:46:26.992Z,22.32
2018-06-28T18:48:59.162Z,22.20
2018-06-28T18:51:29.440Z,22.05
2018-06-28T18:54:01.072Z,21.97
2018-06-28T18:56:33.354Z,21.91
2018-06-28T18:59:09.014Z,21.91
2018-06-28T19:01:38.699Z,21.91
2018-06-28T19:04:12.614Z,21.90
2018-06-28T19:06:44.014Z,21.87
2018-06-28T19:09:13.726Z,21.81
2018-06-28T19:11:44.249Z,21.59
2018-06-28T19:14:20.071Z,21.52
2018-06-28T19:16:57.590Z,21.45
2018-06-28T19:19:28.619Z,21.33
2018-06-28T19:23:05.984Z,21.23
2018-06-28T19:25:35.660Z,21.22
2018-06-28T19:28:04.579Z,21.18
2018-06-28T19:30:39.374Z,21.12
2018-06-28T19:33:07.529Z,21.07
2018-06-28T19:35:38.126Z,21.05
2018-06-28T19:38:10.428Z,21.11
2018-06-28T19:40:46.691Z,21.11
2018-06-28T19:43:15.618Z,21.16
2018-06-28T19:45:45.198Z,21.18
2018-06-28T19:48:13.243Z,21.21
2018-06-28T19:50:47.029Z,21.17
2018-06-28T19:53:23.622Z,21.02
2018-06-28T19:55:55.420Z,20.91
2018-06-28T19:58:27.454Z,20.81
2018-06-28T20:01:02.057Z,20.75
2018-06-28T20:03:38.907Z,20.78
2018-06-28T20:06:12.248Z,20.77
2018-06-28T20:08:41.096Z,20.76
2018-06-28T20:11:09.201Z,20.83
2018-06-28T20:13:43.973Z,20.86
2018-06-28T20:16:18.441Z,20.83
2018-06-28T20:18:57.469Z,20.86
2018-06-28T20:21:31.603Z,20.89
2018-06-28T20:24:01.729Z,20.87
2018-06-28T20:26:39.614Z,20.80
2018-06-28T20:29:18.142Z,20.62
2018-06-28T20:31:56.156Z,20.51
2018-06-28T20:34:50.806Z,20.29
2018-06-28T20:37:18.372Z,20.11
2018-06-28T20:39:45.833Z,20.09
2018-06-28T20:42:13.233Z,20.13
2018-06-28T20:44:41.869Z,20.21
2018-06-28T20:47:10.990Z,20.30
2018-06-28T20:49:38.566Z,20.34
2018-06-28T20:52:06.089Z,20.29
2018-06-28T20:54:33.356Z,20.34
2018-06-28T20:57:00.622Z,20.32
2018-06-28T20:59:27.824Z,20.26
2018-06-28T21:01:55.134Z,20.22
2018-06-28T21:04:22.445Z,20.18
2018-06-28T21:06:49.696Z,20.20
2018-06-28T21:09:16.982Z,20.23
2018-06-28T21:11:44.234Z,20.24
2018-06-28T21:14:11.519Z,20.19
2018-06-28T21:16:38.786Z,20.14
2018-06-28T21:19:06.061Z,20.06
2018-06-28T21:21:33.318Z,19.99
2018-06-28T21:24:00.538Z,20.01
2018-06-28T21:26:27.881Z,20.03
2018-06-28T21:28:55.118Z,20.06
2018-06-28T21:31:22.380Z,20.05
2018-06-28T21:33:49.636Z,19.99
2018-06-28T21:36:16.923Z,19.93
2018-06-28T21:38:44.200Z,19.85
2018-06-28T21:41:11.453Z,19.82
2018-06-28T21:43:38.700Z,19.79
2018-06-28T21:46:05.967Z,19.74
2018-06-28T21:48:33.224Z,19.76
2018-06-28T21:51:00.474Z,19.78
2018-06-28T21:53:27.770Z,19.78
2018-06-28T21:55:54.997Z,19.76
2018-06-28T21:58:22.263Z,19.80
2018-06-28T22:00:49.536Z,19.77
2018-06-28T22:03:16.820Z,19.67
2018-06-28T22:05:44.063Z,19.57
2018-06-28T22:08:11.375Z,19.55
2018-06-28T22:10:38.558Z,19.59
2018-06-28T22:13:05.863Z,19.59
2018-06-28T22:15:33.122Z,19.55
2018-06-28T22:18:01.846Z,19.53
2018-06-28T22:20:30.021Z,19.56
2018-06-28T22:22:57.286Z,19.58
2018-06-28T22:25:26.055Z,19.56
2018-06-28T22:27:53.338Z,19.53
2018-06-28T22:30:21.177Z,19.51
2018-06-28T22:32:48.485Z,19.44
2018-06-28T22:35:15.769Z,19.43
2018-06-28T22:37:43.427Z,19.45
2018-06-28T22:40:10.903Z,19.44
2018-06-28T22:42:38.151Z,19.43
2018-06-28T22:45:05.698Z,19.46
2018-06-28T22:47:33.174Z,19.43
2018-06-28T22:50:00.462Z,19.47
2018-06-28T22:52:28.480Z,19.43
2018-06-28T22:54:56.286Z,19.38
2018-06-28T22:57:23.810Z,19.30
2018-06-28T22:59:51.066Z,19.25
2018-06-28T23:02:18.315Z,19.10
2018-06-28T23:04:45.654Z,19.05
2018-06-28T23:07:13.133Z,19.05
2018-06-28T23:09:40.438Z,19.09
2018-06-28T23:12:07.694Z,19.07
2018-06-28T23:14:34.988Z,19.12
2018-06-28T23:17:02.292Z,19.11
2018-06-28T23:19:29.563Z,19.12
2018-06-28T23:21:56.798Z,19.15
2018-06-28T23:24:24.071Z,19.17
2018-06-28T23:26:51.324Z,19.12
2018-06-28T23:29:18.595Z,19.09
2018-06-28T23:31:45.844Z,19.08
2018-06-28T23:34:13.132Z,19.05
2018-06-28T23:36:40.369Z,19.03
2018-06-28T23:39:08.977Z,19.08
2018-06-28T23:41:36.524Z,19.09
2018-06-28T23:44:04.257Z,19.11
2018-06-28T23:46:31.498Z,19.11
2018-06-28T23:48:58.790Z,19.08
2018-06-28T23:51:26.060Z,19.10
2018-06-28T23:53:53.456Z,19.04
2018-06-28T23:56:20.586Z,19.02
2018-06-28T23:58:47.813Z,19.04
